createdAt,value
2018-06-17T00:00:04.646Z,1009.08
2018-06-17T00:00:46.111Z,1009.06
2018-06-17T00:01:26.676Z,1009.05
2018-06-17T00:02:07.220Z,1009.03
2018-06-17T00:02:47.800Z,1009.04
2018-06-17T00:03:28.365Z,1009.06
2018-06-17T00:04:08.930Z,1009.06
2018-06-17T00:04:49.506Z,1009.11
2018-06-17T00:05:30.051Z,1009.06
2018-06-17T00:06:10.620Z,1009.07
2018-06-17T00:06:51.177Z,1009.11
2018-06-17T00:07:31.726Z,1009.11
2018-06-17T00:08:12.278Z,1009.14
2018-06-17T00:08:52.846Z,1009.1
2018-06-17T00:09:33.398Z,1009.08
2018-06-17T00:10:13.954Z,1009.11
2018-06-17T00:10:54.565Z,1009.09
2018-06-17T00:11:35.152Z,1009.11
2018-06-17T00:12:15.699Z,1009.11
2018-06-17T00:12:56.244Z,1009.1
2018-06-17T00:13:36.807Z,1009.12
2018-06-17T00:14:17.391Z,1009.08
2018-06-17T00:14:57.970Z,1009.11
2018-06-17T00:15:38.525Z,1009.1
2018-06-17T00:16:19.072Z,1009.1
2018-06-17T00:16:59.653Z,1009.09
2018-06-17T00:17:40.213Z,1009.12
2018-06-17T00:18:20.783Z,1009.11
2018-06-17T00:19:01.345Z,1009.12
2018-06-17T00:19:41.929Z,1009.12
2018-06-17T00:20:22.489Z,1009.13
2018-06-17T00:21:03.040Z,1009.13
2018-06-17T00:21:43.591Z,1009.12
2018-06-17T00:22:24.171Z,1009.12
2018-06-17T00:23:04.768Z,1009.14
2018-06-17T00:23:45.348Z,1009.12
2018-06-17T00:24:25.920Z,1009.15
2018-06-17T00:25:06.474Z,1009.13
2018-06-17T00:25:47.105Z,1009.13
2018-06-17T00:26:27.666Z,1009.14
2018-06-17T00:27:08.238Z,1009.1
2018-06-17T00:27:48.833Z,1009.15
2018-06-17T00:28:29.543Z,1009.12
2018-06-17T00:29:10.570Z,1009.16
2018-06-17T00:29:51.116Z,1009.13
2018-06-17T00:30:31.763Z,1009.13
2018-06-17T00:31:12.330Z,1009.15
2018-06-17T00:31:52.881Z,1009.18
2018-06-17T00:32:33.424Z,1009.14
2018-06-17T00:33:14.000Z,1009.15
2018-06-17T00:33:54.556Z,1009.16
2018-06-17T00:34:35.128Z,1009.15
2018-06-17T00:35:16.028Z,1009.2
2018-06-17T00:35:56.586Z,1009.16
2018-06-17T00:36:37.155Z,1009.2
2018-06-17T00:37:17.712Z,1009.13
2018-06-17T00:37:58.275Z,1009.15
2018-06-17T00:38:38.825Z,1009.15
2018-06-17T00:39:19.398Z,1009.15
2018-06-17T00:39:59.950Z,1009.14
2018-06-17T00:40:40.509Z,1009.13
2018-06-17T00:41:21.085Z,1009.13
2018-06-17T00:42:01.641Z,1009.11
2018-06-17T00:42:42.220Z,1009.09
2018-06-17T00:43:22.770Z,1009.09
2018-06-17T00:44:03.355Z,1009.06
2018-06-17T00:44:43.945Z,1009.03
2018-06-17T00:45:24.533Z,1009.03
2018-06-17T00:46:05.082Z,1009.02
2018-06-17T00:46:45.658Z,1009.03
2018-06-17T00:47:26.342Z,1009.02
2018-06-17T00:48:06.939Z,1009.04
2018-06-17T00:48:47.493Z,1009.03
2018-06-17T00:49:28.066Z,1009.05
2018-06-17T00:50:08.629Z,1009.06
2018-06-17T00:50:49.216Z,1009.06
2018-06-17T00:51:29.775Z,1009.07
2018-06-17T00:52:10.344Z,1009.01
2018-06-17T00:52:51.135Z,1009.01
2018-06-17T00:53:31.717Z,1009.05
2018-06-17T00:54:12.308Z,1009.06
2018-06-17T00:54:52.854Z,1009.04
2018-06-17T00:55:33.421Z,1009.04
2018-06-17T00:56:13.996Z,1009.08
2018-06-17T00:56:54.553Z,1009.05
2018-06-17T00:57:35.121Z,1009.05
2018-06-17T00:58:16.169Z,1009.04
2018-06-17T00:58:56.707Z,1009.02
2018-06-17T00:59:37.278Z,1009
2018-06-17T01:00:18.232Z,1009.03
2018-06-17T01:00:58.875Z,1009.02
2018-06-17T01:01:39.571Z,1009.05
2018-06-17T01:02:21.126Z,1008.99
2018-06-17T01:03:01.816Z,1009.02
2018-06-17T01:05:01.163Z,1009.02
2018-06-17T01:05:41.725Z,1008.97
2018-06-17T01:06:22.302Z,1009
2018-06-17T01:07:02.863Z,1009
2018-06-17T01:07:43.672Z,1009
2018-06-17T01:08:24.255Z,1009.01
2018-06-17T01:09:06.312Z,1009.03
2018-06-17T01:09:46.996Z,1009.03
2018-06-17T01:10:27.653Z,1008.98
2018-06-17T01:11:08.219Z,1008.98
2018-06-17T01:11:49.973Z,1008.97
2018-06-17T01:12:30.656Z,1008.98
2018-06-17T01:13:11.237Z,1008.98
2018-06-17T01:13:52.004Z,1008.97
2018-06-17T01:14:33.330Z,1008.96
2018-06-17T01:15:13.883Z,1008.96
2018-06-17T01:15:55.020Z,1008.96
2018-06-17T01:16:35.604Z,1008.96
2018-06-17T01:17:16.258Z,1008.98
2018-06-17T01:17:56.909Z,1008.97
2018-06-17T01:18:37.600Z,1009
2018-06-17T01:19:18.342Z,1009.01
2018-06-17T01:19:58.961Z,1008.97
2018-06-17T01:20:39.589Z,1009.03
2018-06-17T01:21:20.235Z,1009.01
2018-06-17T01:22:00.796Z,1009.02
2018-06-17T01:22:41.388Z,1008.99
2018-06-17T01:23:21.943Z,1008.95
2018-06-17T01:24:02.577Z,1008.94
2018-06-17T01:24:43.158Z,1008.92
2018-06-17T01:25:23.701Z,1008.95
2018-06-17T01:26:04.260Z,1008.94
2018-06-17T01:26:44.815Z,1008.92
2018-06-17T01:27:25.384Z,1008.97
2018-06-17T01:28:05.964Z,1008.97
2018-06-17T01:28:46.536Z,1008.95
2018-06-17T01:29:27.109Z,1008.96
2018-06-17T01:30:07.665Z,1008.97
2018-06-17T01:30:48.218Z,1008.91
2018-06-17T01:31:28.790Z,1008.92
2018-06-17T01:32:09.349Z,1008.9
2018-06-17T01:32:49.902Z,1008.95
2018-06-17T01:33:30.492Z,1008.96
2018-06-17T01:34:11.061Z,1008.92
2018-06-17T01:34:51.618Z,1008.94
2018-06-17T01:35:32.196Z,1008.92
2018-06-17T01:36:12.731Z,1008.92
2018-06-17T01:36:53.308Z,1008.9
2018-06-17T01:37:33.863Z,1008.92
2018-06-17T01:38:14.423Z,1008.9
2018-06-17T01:38:54.985Z,1008.92
2018-06-17T01:39:35.553Z,1008.92
2018-06-17T01:40:16.204Z,1008.93
2018-06-17T01:40:56.753Z,1008.92
2018-06-17T01:41:37.312Z,1008.9
2018-06-17T01:42:17.892Z,1008.91
2018-06-17T01:42:58.463Z,1008.93
2018-06-17T01:43:39.019Z,1008.92
2018-06-17T01:44:19.580Z,1008.96
2018-06-17T01:45:00.149Z,1008.97
2018-06-17T01:45:40.704Z,1008.95
2018-06-17T01:46:21.257Z,1008.95
2018-06-17T01:47:01.815Z,1008.96
2018-06-17T01:47:42.361Z,1008.93
2018-06-17T01:48:22.913Z,1008.9
2018-06-17T01:49:03.463Z,1008.92
2018-06-17T01:49:44.022Z,1008.9
2018-06-17T01:50:24.599Z,1008.89
2018-06-17T01:51:05.150Z,1008.92
2018-06-17T01:51:45.722Z,1008.92
2018-06-17T01:52:26.291Z,1008.94
2018-06-17T01:53:06.859Z,1008.94
2018-06-17T01:53:47.414Z,1008.89
2018-06-17T01:54:27.972Z,1008.9
2018-06-17T01:55:08.581Z,1008.89
2018-06-17T01:55:49.125Z,1008.9
2018-06-17T01:56:29.681Z,1008.88
2018-06-17T01:57:10.255Z,1008.86
2018-06-17T01:57:50.823Z,1008.85
2018-06-17T01:58:31.681Z,1008.88
2018-06-17T01:59:12.271Z,1008.89
2018-06-17T01:59:52.828Z,1008.88
2018-06-17T02:00:33.391Z,1008.9
2018-06-17T02:01:14.024Z,1008.85
2018-06-17T02:01:54.590Z,1008.89
2018-06-17T02:02:35.144Z,1008.91
2018-06-17T02:03:15.713Z,1008.89
2018-06-17T02:03:56.277Z,1008.89
2018-06-17T02:04:36.842Z,1008.88
2018-06-17T02:05:17.400Z,1008.87
2018-06-17T02:05:57.985Z,1008.89
2018-06-17T02:06:38.530Z,1008.88
2018-06-17T02:07:19.087Z,1008.84
2018-06-17T02:07:59.648Z,1008.89
2018-06-17T02:08:40.194Z,1008.89
2018-06-17T02:09:21.534Z,1008.88
2018-06-17T02:10:02.087Z,1008.89
2018-06-17T02:10:42.671Z,1008.88
2018-06-17T02:11:23.234Z,1008.86
2018-06-17T02:12:03.855Z,1008.9
2018-06-17T02:12:44.410Z,1008.86
2018-06-17T02:13:24.971Z,1008.87
2018-06-17T02:14:05.532Z,1008.88
2018-06-17T02:14:46.100Z,1008.88
2018-06-17T02:15:26.669Z,1008.85
2018-06-17T02:16:07.238Z,1008.88
2018-06-17T02:16:47.790Z,1008.87
2018-06-17T02:17:28.340Z,1008.88
2018-06-17T02:18:08.897Z,1008.87
2018-06-17T02:18:49.468Z,1008.85
2018-06-17T02:19:30.026Z,1008.85
2018-06-17T02:20:10.577Z,1008.85
2018-06-17T02:20:51.144Z,1008.85
2018-06-17T02:21:31.730Z,1008.85
2018-06-17T02:22:12.285Z,1008.83
2018-06-17T02:22:52.836Z,1008.81
2018-06-17T02:23:33.415Z,1008.85
2018-06-17T02:24:13.995Z,1008.81
2018-06-17T02:24:54.572Z,1008.82
2018-06-17T02:25:35.129Z,1008.8
2018-06-17T02:26:15.687Z,1008.84
2018-06-17T02:26:56.236Z,1008.82
2018-06-17T02:27:36.793Z,1008.86
2018-06-17T02:28:17.364Z,1008.82
2018-06-17T02:28:57.906Z,1008.8
2018-06-17T02:29:38.484Z,1008.82
2018-06-17T02:30:19.037Z,1008.84
2018-06-17T02:30:59.613Z,1008.8
2018-06-17T02:31:40.176Z,1008.8
2018-06-17T02:32:20.738Z,1008.81
2018-06-17T02:33:01.298Z,1008.77
2018-06-17T02:33:41.898Z,1008.77
2018-06-17T02:34:22.469Z,1008.72
2018-06-17T02:35:03.023Z,1008.72
2018-06-17T02:35:43.615Z,1008.75
2018-06-17T02:36:24.186Z,1008.75
2018-06-17T02:37:04.740Z,1008.74
2018-06-17T02:37:45.277Z,1008.71
2018-06-17T02:38:25.849Z,1008.73
2018-06-17T02:39:06.418Z,1008.72
2018-06-17T02:39:46.963Z,1008.73
2018-06-17T02:40:27.533Z,1008.72
2018-06-17T02:41:08.097Z,1008.7
2018-06-17T02:41:48.653Z,1008.75
2018-06-17T02:42:29.240Z,1008.72
2018-06-17T02:43:09.801Z,1008.72
2018-06-17T02:43:50.382Z,1008.68
2018-06-17T02:44:31.001Z,1008.69
2018-06-17T02:45:11.591Z,1008.67
2018-06-17T02:45:52.136Z,1008.69
2018-06-17T02:46:32.794Z,1008.69
2018-06-17T02:47:13.351Z,1008.67
2018-06-17T02:47:53.916Z,1008.68
2018-06-17T02:48:34.478Z,1008.66
2018-06-17T02:49:15.040Z,1008.64
2018-06-17T02:49:55.614Z,1008.65
2018-06-17T02:50:36.206Z,1008.66
2018-06-17T02:51:16.755Z,1008.65
2018-06-17T02:51:57.350Z,1008.66
2018-06-17T02:52:38.127Z,1008.69
2018-06-17T02:53:18.691Z,1008.65
2018-06-17T02:53:59.305Z,1008.66
2018-06-17T02:54:39.867Z,1008.68
2018-06-17T02:55:20.432Z,1008.65
2018-06-17T02:56:01.007Z,1008.66
2018-06-17T02:56:41.559Z,1008.63
2018-06-17T02:57:22.119Z,1008.62
2018-06-17T02:58:02.695Z,1008.63
2018-06-17T02:58:43.278Z,1008.67
2018-06-17T02:59:23.839Z,1008.64
2018-06-17T03:00:04.460Z,1008.67
2018-06-17T03:00:45.297Z,1008.68
2018-06-17T03:01:25.862Z,1008.7
2018-06-17T03:02:06.442Z,1008.62
2018-06-17T03:02:47.019Z,1008.62
2018-06-17T03:03:27.566Z,1008.61
2018-06-17T03:04:08.126Z,1008.57
2018-06-17T03:04:48.681Z,1008.59
2018-06-17T03:05:29.240Z,1008.58
2018-06-17T03:06:09.790Z,1008.57
2018-06-17T03:06:50.356Z,1008.56
2018-06-17T03:07:30.909Z,1008.61
2018-06-17T03:08:11.477Z,1008.61
2018-06-17T03:08:52.033Z,1008.6
2018-06-17T03:09:32.587Z,1008.62
2018-06-17T03:10:13.142Z,1008.57
2018-06-17T03:10:53.730Z,1008.57
2018-06-17T03:11:34.290Z,1008.59
2018-06-17T03:12:14.842Z,1008.57
2018-06-17T03:12:55.414Z,1008.58
2018-06-17T03:13:35.968Z,1008.57
2018-06-17T03:14:16.525Z,1008.54
2018-06-17T03:14:57.072Z,1008.57
2018-06-17T03:15:37.662Z,1008.56
2018-06-17T03:16:18.252Z,1008.56
2018-06-17T03:16:58.799Z,1008.56
2018-06-17T03:17:39.385Z,1008.56
2018-06-17T03:18:19.954Z,1008.53
2018-06-17T03:19:00.529Z,1008.53
2018-06-17T03:19:41.089Z,1008.54
2018-06-17T03:20:21.650Z,1008.55
2018-06-17T03:21:02.206Z,1008.52
2018-06-17T03:21:42.817Z,1008.5
2018-06-17T03:22:23.366Z,1008.48
2018-06-17T03:23:03.929Z,1008.49
2018-06-17T03:23:44.511Z,1008.48
2018-06-17T03:24:25.114Z,1008.48
2018-06-17T03:25:05.669Z,1008.48
2018-06-17T03:25:46.214Z,1008.49
2018-06-17T03:26:26.773Z,1008.47
2018-06-17T03:27:07.321Z,1008.5
2018-06-17T03:27:47.874Z,1008.51
2018-06-17T03:28:28.424Z,1008.52
2018-06-17T03:29:08.979Z,1008.51
2018-06-17T03:29:49.564Z,1008.54
2018-06-17T03:30:30.114Z,1008.53
2018-06-17T03:31:10.662Z,1008.54
2018-06-17T03:31:51.270Z,1008.56
2018-06-17T03:32:31.829Z,1008.54
2018-06-17T03:33:12.378Z,1008.53
2018-06-17T03:33:52.946Z,1008.54
2018-06-17T03:34:33.501Z,1008.54
2018-06-17T03:35:14.064Z,1008.54
2018-06-17T03:35:54.662Z,1008.58
2018-06-17T03:36:35.238Z,1008.58
2018-06-17T03:37:15.785Z,1008.55
2018-06-17T03:37:56.349Z,1008.61
2018-06-17T03:38:36.919Z,1008.59
2018-06-17T03:39:17.476Z,1008.6
2018-06-17T03:39:58.025Z,1008.61
2018-06-17T03:40:38.604Z,1008.62
2018-06-17T03:41:19.151Z,1008.62
2018-06-17T03:41:59.739Z,1008.59
2018-06-17T03:42:40.298Z,1008.61
2018-06-17T03:43:20.844Z,1008.57
2018-06-17T03:44:01.399Z,1008.57
2018-06-17T03:44:41.961Z,1008.58
2018-06-17T03:45:22.529Z,1008.6
2018-06-17T03:46:03.150Z,1008.58
2018-06-17T03:46:43.702Z,1008.59
2018-06-17T03:47:24.279Z,1008.53
2018-06-17T03:48:04.866Z,1008.55
2018-06-17T03:48:45.464Z,1008.58
2018-06-17T03:49:26.074Z,1008.62
2018-06-17T03:50:06.634Z,1008.55
2018-06-17T03:50:47.211Z,1008.6
2018-06-17T03:51:27.771Z,1008.59
2018-06-17T03:52:08.350Z,1008.61
2018-06-17T03:52:48.904Z,1008.6
2018-06-17T03:53:29.452Z,1008.57
2018-06-17T03:54:10.031Z,1008.6
2018-06-17T03:54:50.601Z,1008.55
2018-06-17T03:55:31.192Z,1008.61
2018-06-17T03:56:11.733Z,1008.54
2018-06-17T03:56:52.327Z,1008.58
2018-06-17T03:57:32.906Z,1008.55
2018-06-17T03:58:13.468Z,1008.55
2018-06-17T03:58:54.021Z,1008.55
2018-06-17T03:59:34.572Z,1008.54
2018-06-17T04:00:15.136Z,1008.54
2018-06-17T04:00:55.705Z,1008.54
2018-06-17T04:01:36.267Z,1008.54
2018-06-17T04:02:16.823Z,1008.55
2018-06-17T04:02:57.379Z,1008.58
2018-06-17T04:03:37.954Z,1008.6
2018-06-17T04:04:18.522Z,1008.61
2018-06-17T04:04:59.080Z,1008.6
2018-06-17T04:05:39.652Z,1008.56
2018-06-17T04:06:20.216Z,1008.57
2018-06-17T04:07:00.806Z,1008.57
2018-06-17T04:07:41.406Z,1008.55
2018-06-17T04:08:21.989Z,1008.61
2018-06-17T04:09:02.541Z,1008.59
2018-06-17T04:09:43.111Z,1008.58
2018-06-17T04:10:23.692Z,1008.57
2018-06-17T04:11:04.259Z,1008.67
2018-06-17T04:11:44.832Z,1008.63
2018-06-17T04:12:25.415Z,1008.65
2018-06-17T04:13:05.974Z,1008.65
2018-06-17T04:13:46.548Z,1008.61
2018-06-17T04:14:27.133Z,1008.65
2018-06-17T04:15:07.687Z,1008.64
2018-06-17T04:15:48.255Z,1008.68
2018-06-17T04:16:28.821Z,1008.7
2018-06-17T04:17:09.380Z,1008.66
2018-06-17T04:17:49.992Z,1008.68
2018-06-17T04:18:30.557Z,1008.67
2018-06-17T04:19:11.121Z,1008.68
2018-06-17T04:19:51.669Z,1008.67
2018-06-17T04:20:32.239Z,1008.64
2018-06-17T04:21:13.464Z,1008.67
2018-06-17T04:21:54.008Z,1008.7
2018-06-17T04:22:34.560Z,1008.65
2018-06-17T04:23:15.150Z,1008.69
2018-06-17T04:23:55.706Z,1008.68
2018-06-17T04:24:36.272Z,1008.68
2018-06-17T04:25:16.890Z,1008.67
2018-06-17T04:25:57.407Z,1008.7
2018-06-17T04:26:37.975Z,1008.66
2018-06-17T04:27:18.554Z,1008.7
2018-06-17T04:27:59.162Z,1008.68
2018-06-17T04:28:39.685Z,1008.68
2018-06-17T04:29:20.239Z,1008.69
2018-06-17T04:30:00.787Z,1008.69
2018-06-17T04:30:41.418Z,1008.69
2018-06-17T04:31:21.980Z,1008.68
2018-06-17T04:32:02.531Z,1008.71
2018-06-17T04:32:43.095Z,1008.71
2018-06-17T04:33:23.645Z,1008.69
2018-06-17T04:34:04.205Z,1008.71
2018-06-17T04:34:44.781Z,1008.67
2018-06-17T04:35:25.340Z,1008.64
2018-06-17T04:36:05.925Z,1008.69
2018-06-17T04:36:46.537Z,1008.71
2018-06-17T04:37:27.098Z,1008.71
2018-06-17T04:38:07.685Z,1008.73
2018-06-17T04:38:48.265Z,1008.73
2018-06-17T04:39:28.802Z,1008.71
2018-06-17T04:40:09.368Z,1008.76
2018-06-17T04:40:49.956Z,1008.71
2018-06-17T04:41:30.534Z,1008.72
2018-06-17T04:42:11.088Z,1008.69
2018-06-17T04:42:51.636Z,1008.72
2018-06-17T04:43:32.188Z,1008.71
2018-06-17T04:44:12.738Z,1008.67
2018-06-17T04:44:53.297Z,1008.74
2018-06-17T04:45:33.865Z,1008.69
2018-06-17T04:46:14.438Z,1008.7
2018-06-17T04:46:55.014Z,1008.73
2018-06-17T04:47:35.573Z,1008.68
2018-06-17T04:48:16.145Z,1008.74
2018-06-17T04:48:56.706Z,1008.67
2018-06-17T04:49:37.272Z,1008.69
2018-06-17T04:50:17.852Z,1008.76
2018-06-17T04:50:58.576Z,1008.68
2018-06-17T04:51:39.069Z,1008.64
2018-06-17T04:52:19.628Z,1008.68
2018-06-17T04:53:00.228Z,1008.68
2018-06-17T04:53:40.757Z,1008.73
2018-06-17T04:54:21.303Z,1008.74
2018-06-17T04:55:01.868Z,1008.71
2018-06-17T04:55:42.441Z,1008.74
2018-06-17T04:56:23.018Z,1008.75
2018-06-17T04:57:03.596Z,1008.73
2018-06-17T04:57:44.148Z,1008.76
2018-06-17T04:58:24.706Z,1008.78
2018-06-17T04:59:05.302Z,1008.76
2018-06-17T04:59:45.860Z,1008.8
2018-06-17T05:00:26.426Z,1008.84
2018-06-17T05:01:06.988Z,1008.87
2018-06-17T05:01:47.563Z,1008.88
2018-06-17T05:02:28.120Z,1008.92
2018-06-17T05:03:08.684Z,1008.96
2018-06-17T05:03:49.252Z,1008.96
2018-06-17T05:04:29.829Z,1008.96
2018-06-17T05:05:10.395Z,1008.97
2018-06-17T05:05:50.984Z,1008.9
2018-06-17T05:06:31.550Z,1008.93
2018-06-17T05:07:12.103Z,1008.92
2018-06-17T05:07:52.652Z,1008.92
2018-06-17T05:08:33.224Z,1008.91
2018-06-17T05:09:13.769Z,1008.9
2018-06-17T05:09:54.339Z,1008.89
2018-06-17T05:10:34.904Z,1008.94
2018-06-17T05:11:15.457Z,1008.94
2018-06-17T05:11:56.012Z,1008.92
2018-06-17T05:12:36.557Z,1008.95
2018-06-17T05:13:17.107Z,1008.98
2018-06-17T05:13:57.675Z,1008.97
2018-06-17T05:14:38.231Z,1009
2018-06-17T05:15:18.809Z,1009.01
2018-06-17T05:15:59.449Z,1009.05
2018-06-17T05:16:40.015Z,1009.03
2018-06-17T05:17:20.572Z,1009.05
2018-06-17T05:18:01.132Z,1009.01
2018-06-17T05:18:41.712Z,1009.04
2018-06-17T05:19:22.273Z,1009.05
2018-06-17T05:20:02.839Z,1009.07
2018-06-17T05:20:43.437Z,1008.87
2018-06-17T05:21:24.018Z,1009.06
2018-06-17T05:22:04.665Z,1009.07
2018-06-17T05:22:45.218Z,1009.06
2018-06-17T05:23:25.932Z,1009.07
2018-06-17T05:24:06.492Z,1009.11
2018-06-17T05:24:47.046Z,1009.04
2018-06-17T05:25:27.599Z,1009.11
2018-06-17T05:26:08.179Z,1008.94
2018-06-17T05:26:48.724Z,1008.95
2018-06-17T05:27:29.276Z,1008.93
2018-06-17T05:28:09.842Z,1009.09
2018-06-17T05:28:50.402Z,1009.14
2018-06-17T05:29:30.994Z,1009.03
2018-06-17T05:30:11.582Z,1009.01
2018-06-17T05:30:52.487Z,1009.04
2018-06-17T05:31:33.082Z,1009.21
2018-06-17T05:32:13.671Z,1009.13
2018-06-17T05:32:54.200Z,1009.11
2018-06-17T05:33:34.756Z,1009.18
2018-06-17T05:34:15.367Z,1009.2
2018-06-17T05:34:55.917Z,1009.24
2018-06-17T05:35:36.528Z,1009.21
2018-06-17T05:36:17.098Z,1009.25
2018-06-17T05:36:57.668Z,1009.27
2018-06-17T05:37:38.229Z,1009.33
2018-06-17T05:38:18.891Z,1009.36
2018-06-17T05:38:59.482Z,1009.39
2018-06-17T05:39:39.983Z,1009.51
2018-06-17T05:40:20.823Z,1009.55
2018-06-17T05:41:01.527Z,1009.57
2018-06-17T05:41:42.188Z,1009.59
2018-06-17T05:42:22.741Z,1009.69
2018-06-17T05:43:03.296Z,1009.79
2018-06-17T05:43:44.697Z,1009.88
2018-06-17T05:44:28.819Z,1009.94
2018-06-17T05:45:10.114Z,1009.94
2018-06-17T05:45:50.725Z,1010
2018-06-17T05:46:31.357Z,1010.09
2018-06-17T05:47:11.870Z,1010.17
2018-06-17T05:47:52.429Z,1010.18
2018-06-17T05:48:32.993Z,1010.32
2018-06-17T05:49:13.661Z,1010.41
2018-06-17T05:49:54.228Z,1010.45
2018-06-17T05:50:34.868Z,1010.48
2018-06-17T05:51:15.431Z,1010.48
2018-06-17T05:51:56.004Z,1010.54
2018-06-17T05:52:36.623Z,1010.6
2018-06-17T05:53:17.171Z,1010.55
2018-06-17T05:53:57.709Z,1010.62
2018-06-17T05:54:38.303Z,1010.7
2018-06-17T05:55:18.917Z,1010.7
2018-06-17T05:55:59.484Z,1010.77
2018-06-17T05:56:40.032Z,1010.75
2018-06-17T05:57:20.716Z,1010.76
2018-06-17T05:58:01.657Z,1010.6
2018-06-17T05:58:44.919Z,1010.56
2018-06-17T05:59:26.097Z,1010.51
2018-06-17T06:00:06.998Z,1010.45
2018-06-17T06:00:48.035Z,1010.36
2018-06-17T06:01:28.837Z,1010.33
2018-06-17T06:02:09.392Z,1010.26
2018-06-17T06:02:50.026Z,1010.24
2018-06-17T06:03:30.613Z,1010.3
2018-06-17T06:04:11.177Z,1010.24
2018-06-17T06:04:51.730Z,1010.14
2018-06-17T06:05:32.270Z,1010.12
2018-06-17T06:06:13.233Z,1010.14
2018-06-17T06:06:54.030Z,1010.23
2018-06-17T06:07:35.000Z,1010.3
2018-06-17T06:08:15.561Z,1010.4
2018-06-17T06:08:56.353Z,1010.42
2018-06-17T06:09:37.205Z,1010.42
2018-06-17T06:10:17.782Z,1010.4
2018-06-17T06:10:58.427Z,1010.33
2018-06-17T06:11:38.959Z,1010.25
2018-06-17T06:12:19.533Z,1010.22
2018-06-17T06:13:00.097Z,1010.18
2018-06-17T06:13:40.678Z,1010.16
2018-06-17T06:14:21.289Z,1010.15
2018-06-17T06:15:01.851Z,1010.19
2018-06-17T06:15:42.676Z,1010.26
2018-06-17T06:16:23.399Z,1010.21
2018-06-17T06:17:03.960Z,1010.24
2018-06-17T06:17:44.993Z,1010.3
2018-06-17T06:18:26.076Z,1010.33
2018-06-17T06:19:06.871Z,1010.35
2018-06-17T06:19:47.634Z,1010.39
2018-06-17T06:20:28.387Z,1010.48
2018-06-17T06:21:08.931Z,1010.53
2018-06-17T06:21:49.587Z,1010.66
2018-06-17T06:22:30.266Z,1010.75
2018-06-17T06:23:12.428Z,1010.84
2018-06-17T06:23:53.518Z,1010.85
2018-06-17T06:24:34.175Z,1010.79
2018-06-17T06:25:14.760Z,1010.75
2018-06-17T06:25:55.575Z,1010.68
2018-06-17T06:26:36.262Z,1010.71
2018-06-17T06:27:16.800Z,1010.81
2018-06-17T06:27:57.859Z,1010.85
2018-06-17T06:28:38.445Z,1010.76
2018-06-17T06:29:19.265Z,1010.73
2018-06-17T06:30:00.294Z,1010.75
2018-06-17T06:30:40.885Z,1010.87
2018-06-17T06:31:21.825Z,1010.95
2018-06-17T06:32:02.693Z,1010.87
2018-06-17T06:32:43.267Z,1010.65
2018-06-17T06:33:24.751Z,1010.52
2018-06-17T06:34:05.625Z,1010.53
2018-06-17T06:34:46.517Z,1010.67
2018-06-17T06:35:27.415Z,1010.75
2018-06-17T06:36:08.840Z,1010.78
2018-06-17T06:36:49.410Z,1010.77
2018-06-17T06:37:29.985Z,1010.75
2018-06-17T06:38:10.693Z,1010.7
2018-06-17T06:38:51.664Z,1010.7
2018-06-17T06:39:32.752Z,1010.69
2018-06-17T06:40:13.467Z,1010.58
2018-06-17T06:40:54.016Z,1010.52
2018-06-17T06:41:34.756Z,1010.43
2018-06-17T06:42:15.486Z,1010.32
2018-06-17T06:42:56.572Z,1010.14
2018-06-17T06:43:37.379Z,1009.97
2018-06-17T06:44:18.153Z,1009.84
2018-06-17T06:44:58.970Z,1009.83
2018-06-17T06:45:39.760Z,1009.83
2018-06-17T06:46:20.347Z,1009.74
2018-06-17T06:47:01.545Z,1009.72
2018-06-17T06:47:42.329Z,1009.75
2018-06-17T06:48:22.910Z,1009.69
2018-06-17T06:49:03.500Z,1009.66
2018-06-17T06:49:44.096Z,1009.69
2018-06-17T06:50:25.046Z,1009.68
2018-06-17T06:51:06.199Z,1009.68
2018-06-17T06:51:46.857Z,1009.75
2018-06-17T06:52:27.934Z,1009.82
2018-06-17T06:53:09.036Z,1010.03
2018-06-17T06:53:49.864Z,1010.25
2018-06-17T06:54:30.742Z,1010.42
2018-06-17T06:55:11.504Z,1010.41
2018-06-17T06:55:52.041Z,1010.22
2018-06-17T06:56:32.603Z,1010.03
2018-06-17T06:57:13.172Z,1009.86
2018-06-17T06:57:53.824Z,1009.75
2018-06-17T06:58:34.406Z,1009.7
2018-06-17T06:59:15.055Z,1009.68
2018-06-17T06:59:55.612Z,1009.65
2018-06-17T07:00:36.730Z,1009.68
2018-06-17T07:01:17.329Z,1009.67
2018-06-17T07:01:58.257Z,1009.69
2018-06-17T07:02:38.863Z,1009.68
2018-06-17T07:03:19.434Z,1009.68
2018-06-17T07:04:00.065Z,1009.67
2018-06-17T07:04:40.647Z,1009.69
2018-06-17T07:05:21.286Z,1009.66
2018-06-17T07:06:01.872Z,1009.69
2018-06-17T07:06:42.420Z,1009.7
2018-06-17T07:07:23.005Z,1009.71
2018-06-17T07:08:03.914Z,1009.73
2018-06-17T07:08:44.473Z,1009.72
2018-06-17T07:09:25.177Z,1009.78
2018-06-17T07:10:05.789Z,1009.78
2018-06-17T07:10:46.442Z,1009.82
2018-06-17T07:11:27.060Z,1009.82
2018-06-17T07:12:07.835Z,1009.88
2018-06-17T07:12:48.423Z,1009.91
2018-06-17T07:13:29.110Z,1009.95
2018-06-17T07:14:09.730Z,1009.96
2018-06-17T07:14:50.423Z,1009.91
2018-06-17T07:15:30.962Z,1009.89
2018-06-17T07:16:11.582Z,1009.88
2018-06-17T07:16:52.194Z,1009.86
2018-06-17T07:17:32.749Z,1009.87
2018-06-17T07:18:13.430Z,1009.88
2018-06-17T07:18:54.004Z,1009.88
2018-06-17T07:19:34.578Z,1009.85
2018-06-17T07:20:15.148Z,1009.83
2018-06-17T07:20:55.729Z,1009.91
2018-06-17T07:21:36.321Z,1010.09
2018-06-17T07:22:16.905Z,1010.33
2018-06-17T07:22:57.665Z,1010.66
2018-06-17T07:23:38.713Z,1010.89
2018-06-17T07:24:19.628Z,1011.01
2018-06-17T07:25:00.404Z,1011.04
2018-06-17T07:25:40.982Z,1011.16
2018-06-17T07:26:21.549Z,1010.95
2018-06-17T07:27:02.102Z,1010.57
2018-06-17T07:27:42.693Z,1010.19
2018-06-17T07:28:23.262Z,1010.06
2018-06-17T07:29:03.823Z,1010.02
2018-06-17T07:29:44.373Z,1010.01
2018-06-17T07:30:24.938Z,1010.04
2018-06-17T07:31:05.487Z,1009.99
2018-06-17T07:31:46.129Z,1010
2018-06-17T07:32:26.802Z,1009.98
2018-06-17T07:33:07.424Z,1010.01
2018-06-17T07:33:48.010Z,1010
2018-06-17T07:34:28.567Z,1010
2018-06-17T07:35:09.161Z,1010
2018-06-17T07:35:49.735Z,1010.04
2018-06-17T07:36:30.302Z,1010.06
2018-06-17T07:37:10.891Z,1010.08
2018-06-17T07:37:51.470Z,1010.06
2018-06-17T07:38:32.740Z,1010.08
2018-06-17T07:39:13.735Z,1010.07
2018-06-17T07:39:54.308Z,1010.06
2018-06-17T07:40:35.374Z,1010.07
2018-06-17T07:41:16.419Z,1010.09
2018-06-17T07:41:57.448Z,1010.1
2018-06-17T07:42:38.500Z,1010.12
2018-06-17T07:43:19.322Z,1010.12
2018-06-17T07:44:00.186Z,1010.11
2018-06-17T07:44:41.373Z,1010.12
2018-06-17T07:45:23.038Z,1010.12
2018-06-17T07:46:04.120Z,1010.17
2018-06-17T07:46:44.784Z,1010.11
2018-06-17T07:47:26.541Z,1010.12
2018-06-17T07:48:08.290Z,1010.12
2018-06-17T07:48:49.596Z,1010.12
2018-06-17T07:49:30.945Z,1010.15
2018-06-17T07:50:11.883Z,1010.12
2018-06-17T07:50:52.778Z,1010.13
2018-06-17T07:51:34.013Z,1010.13
2018-06-17T07:52:14.386Z,1010.13
2018-06-17T07:52:55.345Z,1010.12
2018-06-17T07:53:36.406Z,1010.13
2018-06-17T07:54:17.307Z,1010.1
2018-06-17T07:54:58.573Z,1010.11
2018-06-17T07:55:39.112Z,1010.12
2018-06-17T07:56:20.454Z,1010.17
2018-06-17T07:57:02.083Z,1010.13
2018-06-17T07:57:43.167Z,1010.16
2018-06-17T07:58:24.392Z,1010.12
2018-06-17T07:59:05.339Z,1010.15
2018-06-17T07:59:46.775Z,1010.15
2018-06-17T08:00:27.105Z,1010.13
2018-06-17T08:01:08.126Z,1010.14
2018-06-17T08:01:49.187Z,1010.12
2018-06-17T08:02:30.974Z,1010.1
2018-06-17T08:03:12.216Z,1010.11
2018-06-17T08:03:52.691Z,1010.09
2018-06-17T08:04:34.150Z,1010.04
2018-06-17T08:05:14.898Z,1010.08
2018-06-17T08:05:55.696Z,1010.05
2018-06-17T08:06:36.707Z,1010.05
2018-06-17T08:07:17.098Z,1010.05
2018-06-17T08:07:58.154Z,1010.08
2018-06-17T08:08:39.288Z,1010.08
2018-06-17T08:09:20.261Z,1010.08
2018-06-17T08:10:01.359Z,1010.11
2018-06-17T08:10:42.662Z,1010.11
2018-06-17T08:11:24.003Z,1010.08
2018-06-17T08:12:05.553Z,1010.1
2018-06-17T08:12:46.489Z,1010.14
2018-06-17T08:13:27.778Z,1010.13
2018-06-17T08:14:08.652Z,1010.18
2018-06-17T08:14:49.446Z,1010.14